LFRG 221130Z AUTO 23013KT 200V260 9999 OVC016 10/07 Q1026 TEMPO 4000 DZ BKN008 BECMG 23015G25KT

ElémentsDécodage
LFRG Station météo située sur l'aérodrome de DEAUVILLE Saint-Gatien
221130Z émis le 22 du mois à 11h30 UTC
AUTO Bulletin édité par un automate
23013KT vent du 230°, 13 noeuds
200V260 vent de direction variable entre 200° et 260°
9999 visibilité horizontale supérieure à 10 Km
OVC016 couverture nuageuse totale (8/8) à 1600 pieds
10/07 température 10°C, point de rosée 07°C
 soit une humidité relative de 82%
Q1026 la pression au niveau de la mer (QNH) est de 1026 hPa
TEMPO fluctuation temporaire prévue
4000 visibilité horizontale de 4000 mètres
DZ bruine
BKN008 nuages morcelés (5/8 à 7/8) à 800 pieds
BECMG fluctuation du temps prévue
23015G25KT vent du 230°, moyenne: 15 noeuds, avec rafales à 25 noeuds